Time;durP1;ratioP1;P1;durP2;ratioP2;P2;SDS_P1;SDS_P2;PMS_P1;PMS_P2;Temp;Humidity;BMP_temperature;BMP_pressure;BME280_temperature;BME280_humidity;BME280_pressure;Samples;Min_cycle;Max_cycle;Signal;HPM_P1;HPM_P2
2022/01/23 00:02:17;;;;;;;1.20;1.10;;;4.70;99.90;;;;;;5051189;28;20028;-62
2022/01/23 00:04:43;;;;;;;0.20;0.20;;;4.70;99.90;;;;;;5051108;28;20083;-62
2022/01/23 00:07:14;;;;;;;1.38;1.25;;;4.70;99.90;;;;;;5051051;28;20053;-62
2022/01/23 00:09:40;;;;;;;23.52;3.88;;;4.70;99.90;;;;;;5033660;28;20036;-62
2022/01/23 00:12:12;;;;;;;2.20;1.95;;;4.70;99.90;;;;;;5050970;28;20056;-62
2022/01/23 00:17:25;;;;;;;0.77;0.77;;;4.70;99.90;;;;;;5050822;28;20068;-63
2022/01/23 00:19:56;;;;;;;1.65;1.55;;;4.70;99.90;;;;;;5051311;28;20041;-62
2022/01/23 00:22:32;;;;;;;;;;;4.70;99.90;;;;;;5053884;28;20025;-62
2022/01/23 00:30:28;;;;;;;1.48;1.38;;;4.70;99.90;;;;;;5054164;28;20057;-61
2022/01/23 00:33:03;;;;;;;1.00;1.00;;;4.70;99.90;;;;;;5053983;28;20136;-62
2022/01/23 00:35:31;;;;;;;0.60;0.60;;;4.70;99.90;;;;;;5053971;28;20037;-62
2022/01/23 00:37:57;;;;;;;0.55;0.50;;;4.60;99.90;;;;;;5053929;28;20485;-62
2022/01/23 00:40:26;;;;;;;2.17;0.85;;;4.60;99.90;;;;;;5054018;28;20063;-62
2022/01/23 00:42:54;;;;;;;0.70;0.70;;;4.60;99.90;;;;;;5054148;28;20044;-61
2022/01/23 00:45:30;;;;;;;5.95;3.80;;;4.60;99.90;;;;;;5052572;28;20029;-61
2022/01/23 00:48:05;;;;;;;0.30;0.30;;;4.50;99.90;;;;;;5052708;28;20390;-61
2022/01/23 00:50:38;;;;;;;0.25;0.25;;;4.50;99.90;;;;;;5052808;28;20090;-62
2022/01/23 00:53:10;;;;;;;0.15;0.15;;;4.50;99.90;;;;;;5053911;28;20055;-64
2022/01/23 00:55:39;;;;;;;0.55;0.55;;;4.50;99.90;;;;;;5053931;28;20051;-61
2022/01/23 00:58:05;;;;;;;1.92;1.83;;;4.40;99.90;;;;;;5053591;28;20025;-61
2022/01/23 01:00:31;;;;;;;0.10;0.10;;;4.40;99.90;;;;;;5053415;28;20640;-61
2022/01/23 01:03:01;;;;;;;0.38;0.38;;;4.40;99.90;;;;;;5052069;28;20124;-62
2022/01/23 01:05:28;;;;;;;0.68;0.68;;;4.40;99.90;;;;;;5052590;28;20029;-62
2022/01/23 01:07:55;;;;;;;0.10;0.10;;;4.40;99.90;;;;;;5053446;28;20029;-62
2022/01/23 01:10:28;;;;;;;0.93;0.93;;;4.40;99.90;;;;;;5053905;28;20059;-62
2022/01/23 01:12:59;;;;;;;4.95;1.23;;;4.40;99.90;;;;;;5051911;28;20046;-60
2022/01/23 01:15:33;;;;;;;0.10;0.10;;;4.40;99.90;;;;;;5052241;28;20117;-61
2022/01/23 01:38:59;;;;;;;0.45;0.45;;;4.30;99.90;;;;;;5051631;28;20033;-62
2022/01/23 01:41:26;;;;;;;0.98;0.88;;;4.30;99.90;;;;;;5052962;28;20056;-61
2022/01/23 01:43:54;;;;;;;1.27;1.17;;;4.30;99.90;;;;;;5052705;28;20044;-62
2022/01/23 01:46:20;;;;;;;0.30;0.30;;;4.30;99.90;;;;;;5051757;28;20037;-62
2022/01/23 01:48:46;;;;;;;1.27;1.17;;;4.30;99.90;;;;;;5052449;28;20456;-62
2022/01/23 01:51:16;;;;;;;1.23;1.02;;;4.30;99.90;;;;;;5052906;28;20108;-62
2022/01/23 01:53:48;;;;;;;0.20;0.20;;;4.30;99.90;;;;;;5051354;28;20118;-61
2022/01/23 01:56:14;;;;;;;0.98;0.98;;;4.30;99.90;;;;;;5052699;28;20029;-62
2022/01/23 02:09:29;;;;;;;0.20;0.20;;;4.30;99.90;;;;;;5051475;28;20383;-62
2022/01/23 02:51:00;;;;;;;0.40;0.40;;;4.20;99.90;;;;;;5051689;28;20086;-62
2022/01/23 02:56:02;;;;;;;1.50;1.40;;;4.20;99.90;;;;;;5051857;28;20037;-62
2022/01/23 02:58:36;;;;;;;0.82;0.82;;;4.20;99.90;;;;;;5051804;28;20036;-62
2022/01/23 03:03:30;;;;;;;0.63;0.63;;;4.20;99.90;;;;;;5050808;28;20060;-62
2022/01/23 03:11:53;;;;;;;3.88;1.20;;;4.20;99.90;;;;;;5051819;28;20037;-63
2022/01/23 03:30:14;;;;;;;1.92;1.83;;;4.00;99.90;;;;;;5051345;28;20674;-62
2022/01/23 03:32:45;;;;;;;0.43;0.43;;;4.10;99.90;;;;;;5051460;28;20048;-61
2022/01/23 03:35:11;;;;;;;0.10;0.10;;;4.10;99.90;;;;;;5050590;28;20454;-61
2022/01/23 03:37:37;;;;;;;2.05;1.92;;;4.10;99.90;;;;;;5051591;28;20108;-61
2022/01/23 03:40:07;;;;;;;0.20;0.20;;;4.10;99.90;;;;;;5051560;28;20075;-61
2022/01/23 03:42:35;;;;;;;1.75;1.58;;;4.10;99.90;;;;;;5050262;28;20063;-62
2022/01/23 03:50:30;;;;;;;0.38;0.38;;;4.10;99.90;;;;;;5051061;28;20029;-61
2022/01/23 03:52:55;;;;;;;1.48;1.38;;;4.00;99.90;;;;;;5051885;28;20025;-61
2022/01/23 03:55:21;;;;;;;2.00;1.30;;;4.00;99.90;;;;;;5055306;28;20037;-61
2022/01/23 03:57:47;;;;;;;0.50;0.50;;;4.00;99.90;;;;;;5055165;28;20029;-62
2022/01/23 04:00:16;;;;;;;0.38;0.38;;;4.00;99.90;;;;;;5055032;28;20090;-61
2022/01/23 04:02:42;;;;;;;0.80;0.80;;;4.00;99.90;;;;;;5053972;28;20465;-62
2022/01/23 04:05:09;;;;;;;1.48;1.38;;;4.00;99.90;;;;;;5054935;28;20064;-61
2022/01/23 04:07:36;;;;;;;2.00;1.88;;;4.00;99.90;;;;;;5054880;28;20041;-61
2022/01/23 04:10:04;;;;;;;0.25;0.25;;;4.00;99.90;;;;;;5053825;28;20061;-61
2022/01/23 04:15:33;;;;;;;1.75;1.65;;;4.00;99.90;;;;;;5054899;28;20071;-61
2022/01/23 04:45:25;;;;;;;0.10;0.10;;;4.10;99.90;;;;;;5054267;28;20085;-61
2022/01/23 05:01:28;;;;;;;0.32;0.32;;;4.10;99.90;;;;;;5053732;28;20082;-62
2022/01/23 05:04:16;;;;;;;4.20;3.00;;;4.10;99.90;;;;;;5052758;28;20051;-62
2022/01/23 05:06:45;;;;;;;0.70;0.70;;;4.10;99.90;;;;;;5052165;28;20021;-62
2022/01/23 05:09:13;;;;;;;6.45;1.25;;;4.00;99.90;;;;;;5036488;28;20033;-62
2022/01/23 05:11:48;;;;;;;6.72;2.20;;;4.00;99.90;;;;;;5053702;28;20090;-62
2022/01/23 05:14:15;;;;;;;1.63;1.52;;;3.90;99.90;;;;;;5053529;28;20040;-62
2022/01/23 05:16:41;;;;;;;1.10;1.02;;;4.00;99.90;;;;;;5052576;28;20033;-62
2022/01/23 05:19:07;;;;;;;1.00;1.00;;;3.90;99.90;;;;;;5053586;28;20478;-62
2022/01/23 05:24:08;;;;;;;1.38;1.27;;;3.90;99.90;;;;;;5053109;28;20033;-62
2022/01/23 05:26:42;;;;;;;0.22;0.22;;;3.90;99.90;;;;;;5053486;28;20029;-62
2022/01/23 05:29:09;;;;;;;0.22;0.22;;;3.90;99.90;;;;;;5051882;28;20064;-62
2022/01/23 05:31:34;;;;;;;0.60;0.60;;;3.90;99.90;;;;;;5053154;28;20124;-62
2022/01/23 05:34:00;;;;;;;1.13;1.13;;;3.90;99.90;;;;;;5052801;28;20152;-62
2022/01/23 05:36:26;;;;;;;1.25;1.25;;;3.90;99.90;;;;;;5053058;28;20024;-62
2022/01/23 05:38:52;;;;;;;1.05;0.90;;;3.90;99.90;;;;;;5053224;28;20025;-62
2022/01/23 05:41:18;;;;;;;1.10;1.08;;;3.90;99.90;;;;;;5053236;28;20029;-62
2022/01/23 05:43:44;;;;;;;0.88;0.88;;;3.90;99.90;;;;;;5053227;28;20045;-63
2022/01/23 05:46:09;;;;;;;5.45;1.67;;;3.90;99.90;;;;;;5052382;28;20035;-62
2022/01/23 05:48:35;;;;;;;0.20;0.20;;;3.90;99.90;;;;;;5053109;28;20037;-61
2022/01/23 05:51:01;;;;;;;0.40;0.40;;;3.90;99.90;;;;;;5052992;28;20044;-61
2022/01/23 05:53:27;;;;;;;0.52;0.52;;;3.90;99.90;;;;;;5051698;28;20024;-62
2022/01/23 05:55:52;;;;;;;2.30;1.08;;;3.90;99.90;;;;;;5051630;28;20040;-61
2022/01/23 05:58:18;;;;;;;2.08;1.70;;;3.90;99.90;;;;;;5052680;28;20029;-63
2022/01/23 06:00:44;;;;;;;2.22;1.92;;;3.90;99.90;;;;;;5052635;28;20441;-62
2022/01/23 06:03:10;;;;;;;0.70;0.70;;;3.90;99.90;;;;;;5052769;28;20028;-63
2022/01/23 06:05:35;;;;;;;35.78;3.58;;;3.90;99.90;;;;;;5051301;28;20490;-62
2022/01/23 06:08:01;;;;;;;0.38;0.38;;;3.90;99.90;;;;;;5050857;28;20029;-62
2022/01/23 06:10:29;;;;;;;0.68;0.68;;;3.90;99.90;;;;;;5052653;28;20029;-62
2022/01/23 06:12:54;;;;;;;0.90;0.77;;;3.90;99.90;;;;;;5052441;28;20033;-62
2022/01/23 06:15:21;;;;;;;2.63;1.52;;;3.90;99.90;;;;;;5051026;28;20437;-62
2022/01/23 06:17:47;;;;;;;0.32;0.32;;;4.00;99.90;;;;;;5050294;28;20037;-62
2022/01/23 06:20:14;;;;;;;5.68;2.95;;;4.00;99.90;;;;;;5052163;28;20033;-62
2022/01/23 06:22:43;;;;;;;0.30;0.30;;;3.90;99.90;;;;;;5052178;28;20036;-63
2022/01/23 06:25:11;;;;;;;0.65;0.65;;;3.90;99.90;;;;;;5050706;28;20044;-62
2022/01/23 06:27:37;;;;;;;1.77;1.67;;;4.00;99.90;;;;;;5050968;28;20036;-63
2022/01/23 06:30:03;;;;;;;0.40;0.40;;;3.90;99.90;;;;;;5052152;28;20033;-62
2022/01/23 06:32:29;;;;;;;0.10;0.10;;;3.90;99.90;;;;;;5050601;28;20063;-62
2022/01/23 06:34:55;;;;;;;0.38;0.38;;;4.00;99.90;;;;;;5051957;28;20440;-63
2022/01/23 06:37:20;;;;;;;1.20;1.20;;;3.90;99.90;;;;;;5051876;28;20036;-62
2022/01/23 06:39:46;;;;;;;1.58;1.50;;;4.00;99.90;;;;;;5052310;28;20111;-62
2022/01/23 06:42:12;;;;;;;0.45;0.45;;;3.90;99.90;;;;;;5051712;28;20064;-62
2022/01/23 06:44:40;;;;;;;1.48;1.38;;;3.90;99.90;;;;;;5050698;28;20052;-62
2022/01/23 06:47:06;;;;;;;0.75;0.75;;;4.00;99.90;;;;;;5051740;28;20080;-62
2022/01/23 06:49:32;;;;;;;2.72;1.45;;;3.90;99.90;;;;;;5050909;28;20426;-62
2022/01/23 06:51:57;;;;;;;1.02;1.02;;;3.90;99.90;;;;;;5050518;28;20109;-62
2022/01/23 06:54:23;;;;;;;0.30;0.30;;;3.90;99.90;;;;;;5051910;28;20037;-62
2022/01/23 06:56:49;;;;;;;5.20;3.40;;;3.90;99.90;;;;;;5051469;28;20083;-62
2022/01/23 06:59:15;;;;;;;3.20;2.38;;;4.00;99.90;;;;;;5052001;28;20120;-61
2022/01/23 07:01:41;;;;;;;0.90;0.90;;;4.00;99.90;;;;;;5051876;28;20466;-61
2022/01/23 07:04:06;;;;;;;0.63;0.63;;;4.10;99.90;;;;;;5051729;28;20033;-61
2022/01/23 07:06:32;;;;;;;0.80;0.80;;;4.10;99.90;;;;;;5051660;28;20021;-62
2022/01/23 07:08:58;;;;;;;2.10;1.52;;;4.20;99.90;;;;;;5051343;28;20120;-61
2022/01/23 07:11:24;;;;;;;0.10;0.10;;;4.20;99.90;;;;;;5051746;28;20068;-61
2022/01/23 07:13:50;;;;;;;0.95;0.95;;;4.20;99.90;;;;;;5050121;28;20029;-62
2022/01/23 07:16:16;;;;;;;0.22;0.22;;;4.20;99.90;;;;;;5051723;28;20055;-62
2022/01/23 07:18:41;;;;;;;1.38;1.02;;;4.30;99.90;;;;;;5049813;28;20068;-62
2022/01/23 07:21:07;;;;;;;0.80;0.80;;;4.30;99.90;;;;;;5050921;28;20099;-62
2022/01/23 07:23:33;;;;;;;0.90;0.90;;;4.30;99.90;;;;;;5051704;28;20047;-62
2022/01/23 07:25:59;;;;;;;0.93;0.93;;;4.30;99.90;;;;;;5049930;28;20555;-63
2022/01/23 07:28:35;;;;;;;3.85;0.95;;;4.30;99.90;;;;;;5051606;28;20040;-62
2022/01/23 07:31:04;;;;;;;0.93;0.88;;;4.30;99.90;;;;;;5070873;28;20146;-62
2022/01/23 07:33:33;;;;;;;0.60;0.60;;;4.30;99.90;;;;;;5055256;28;20125;-62
2022/01/23 07:36:01;;;;;;;0.65;0.60;;;4.40;99.90;;;;;;5055245;28;20033;-62
2022/01/23 07:38:27;;;;;;;0.32;0.32;;;4.40;99.90;;;;;;5054129;28;20044;-62
2022/01/23 07:40:53;;;;;;;4.30;2.30;;;4.40;99.90;;;;;;5055884;28;20346;-71
2022/01/23 07:43:18;;;;;;;1.23;1.13;;;4.20;99.90;;;;;;5074019;28;20082;-73
2022/01/23 07:45:44;;;;;;;2.13;2.00;;;4.20;99.90;;;;;;5075320;28;20044;-69
2022/01/23 07:48:11;;;;;;;9.38;2.60;;;4.20;99.90;;;;;;5073774;28;20029;-62
2022/01/23 07:50:37;;;;;;;1.85;1.50;;;4.20;99.90;;;;;;5066626;28;20083;-62
2022/01/23 07:53:04;;;;;;;1.92;1.75;;;4.20;99.90;;;;;;5073993;28;20024;-63
2022/01/23 07:55:31;;;;;;;3.53;1.88;;;4.10;99.90;;;;;;5075000;28;20048;-63
2022/01/23 07:58:02;;;;;;;3.63;1.58;;;4.10;99.90;;;;;;5074720;28;20060;-63
2022/01/23 08:00:29;;;;;;;1.48;1.40;;;4.10;99.90;;;;;;5073728;28;20032;-63
2022/01/23 08:02:54;;;;;;;0.43;0.43;;;4.10;99.90;;;;;;5073628;28;20033;-63
2022/01/23 08:05:21;;;;;;;1.40;1.30;;;4.20;99.90;;;;;;5074593;28;20028;-61
2022/01/23 08:07:46;;;;;;;9.10;2.40;;;4.20;99.90;;;;;;5074256;28;20032;-62
2022/01/23 08:10:15;;;;;;;0.40;0.40;;;4.30;99.90;;;;;;5089835;28;20035;-62
2022/01/23 08:12:41;;;;;;;1.52;1.42;;;4.30;99.90;;;;;;5073332;28;20094;-62
2022/01/23 08:15:08;;;;;;;2.30;1.75;;;4.30;99.90;;;;;;5074192;28;20119;-62
2022/01/23 08:17:34;;;;;;;2.53;1.58;;;4.40;99.90;;;;;;5073112;28;20040;-63
2022/01/23 08:20:03;;;;;;;1.65;1.02;;;4.50;99.90;;;;;;5074602;28;20041;-62
2022/01/23 08:22:32;;;;;;;2.55;1.15;;;4.60;99.90;;;;;;5074473;28;20028;-62
2022/01/23 08:24:58;;;;;;;0.77;0.77;;;4.70;99.90;;;;;;5074169;28;20078;-62
2022/01/23 08:27:25;;;;;;;0.63;0.63;;;4.60;99.90;;;;;;5074608;28;20040;-62
2022/01/23 08:29:51;;;;;;;5.65;1.08;;;5.00;99.90;;;;;;5074272;28;20052;-61
2022/01/23 08:32:17;;;;;;;3.45;2.05;;;4.90;99.90;;;;;;5072580;28;20036;-61
2022/01/23 08:34:43;;;;;;;0.63;0.63;;;4.70;99.90;;;;;;5073960;28;20040;-61
2022/01/23 08:37:10;;;;;;;0.85;0.85;;;4.60;99.90;;;;;;5072643;28;20024;-62
2022/01/23 08:39:37;;;;;;;0.95;0.93;;;4.40;99.90;;;;;;5073302;28;20028;-62
2022/01/23 08:42:06;;;;;;;2.05;1.95;;;4.40;99.90;;;;;;5074095;28;20032;-62
2022/01/23 08:44:33;;;;;;;2.53;2.28;;;4.40;99.90;;;;;;5072655;28;20040;-62
2022/01/23 08:46:59;;;;;;;0.63;0.63;;;4.40;99.90;;;;;;5073773;28;20037;-62
2022/01/23 08:49:28;;;;;;;2.55;1.55;;;4.40;99.90;;;;;;5072654;28;20037;-62
2022/01/23 08:51:56;;;;;;;0.63;0.63;;;4.40;99.90;;;;;;5073868;28;20028;-62
2022/01/23 08:54:23;;;;;;;0.50;0.50;;;4.50;99.90;;;;;;5073546;28;20033;-62
2022/01/23 08:56:49;;;;;;;0.32;0.32;;;4.50;99.90;;;;;;5073223;28;20029;-62
2022/01/23 08:59:15;;;;;;;0.60;0.60;;;4.60;99.90;;;;;;5072394;28;20048;-61
2022/01/23 09:01:41;;;;;;;1.85;1.75;;;4.60;99.90;;;;;;5073524;28;20107;-61
2022/01/23 09:04:08;;;;;;;0.90;0.90;;;4.60;99.90;;;;;;5088996;28;20396;-63
2022/01/23 09:06:34;;;;;;;0.77;0.77;;;4.60;99.90;;;;;;5055662;28;20395;-62
2022/01/23 09:09:01;;;;;;;0.95;0.45;;;4.70;99.90;;;;;;5073509;28;20081;-62
2022/01/23 09:14:07;;;;;;;0.03;0.03;;;4.70;99.90;;;;;;5073396;28;20547;-63
2022/01/23 09:16:41;;;;;;;1.98;1.80;;;4.60;99.90;;;;;;5073515;28;20064;-63
2022/01/23 09:19:09;;;;;;;0.20;0.20;;;4.70;99.90;;;;;;5073353;28;20054;-63
2022/01/23 09:21:36;;;;;;;0.82;0.82;;;4.70;99.90;;;;;;5073374;28;20040;-63
2022/01/23 09:24:04;;;;;;;2.60;2.45;;;4.80;99.90;;;;;;5072779;28;20457;-62
2022/01/23 09:26:30;;;;;;;0.68;0.68;;;4.70;99.90;;;;;;5073196;28;20134;-62
2022/01/23 09:29:00;;;;;;;1.98;1.40;;;4.60;99.90;;;;;;5073169;28;20032;-61
2022/01/23 09:31:35;;;;;;;1.13;1.13;;;4.70;99.90;;;;;;5072782;28;20488;-62
2022/01/23 09:34:01;;;;;;;1.50;1.38;;;4.70;99.90;;;;;;5072822;28;20036;-61
2022/01/23 09:36:28;;;;;;;3.58;3.28;;;4.70;99.90;;;;;;5073229;28;20043;-62
2022/01/23 09:38:54;;;;;;;0.65;0.65;;;4.80;99.90;;;;;;5072895;28;20028;-61
2022/01/23 09:41:25;;;;;;;0.40;0.40;;;5.00;99.90;;;;;;5072519;28;20105;-62
2022/01/23 09:43:52;;;;;;;0.60;0.60;;;5.00;99.90;;;;;;5072653;28;20535;-62
2022/01/23 09:46:19;;;;;;;0.47;0.47;;;5.10;99.90;;;;;;5071020;28;20040;-62
2022/01/23 09:48:47;;;;;;;2.35;2.25;;;5.20;99.90;;;;;;5069251;28;20040;-62
2022/01/23 09:51:13;;;;;;;9.90;6.93;;;5.10;99.90;;;;;;5071406;28;20484;-62
2022/01/23 09:53:40;;;;;;;2.33;1.08;;;5.20;99.90;;;;;;5071155;28;20477;-62
2022/01/23 09:56:10;;;;;;;0.90;0.90;;;5.30;99.90;;;;;;5072337;28;20048;-63
2022/01/23 09:58:38;;;;;;;0.80;0.80;;;5.40;99.90;;;;;;5072570;28;20086;-62
2022/01/23 10:01:04;;;;;;;0.55;0.55;;;5.50;99.90;;;;;;5072482;28;20064;-63
2022/01/23 10:03:30;;;;;;;3.33;2.47;;;5.60;99.90;;;;;;5072476;28;20453;-62
2022/01/23 10:05:56;;;;;;;0.40;0.40;;;5.60;99.90;;;;;;5072503;28;20435;-63
2022/01/23 10:08:26;;;;;;;0.63;0.63;;;5.50;99.90;;;;;;5071199;28;20417;-62
2022/01/23 10:10:53;;;;;;;0.30;0.30;;;5.60;99.90;;;;;;5070671;28;20033;-61
2022/01/23 10:13:26;;;;;;;0.47;0.47;;;5.70;99.90;;;;;;5072321;28;20033;-62
2022/01/23 10:15:51;;;;;;;1.35;1.25;;;5.70;99.90;;;;;;5071054;28;20032;-62
2022/01/23 10:18:19;;;;;;;0.65;0.65;;;5.80;99.90;;;;;;5072356;28;20504;-63
2022/01/23 10:20:46;;;;;;;0.20;0.20;;;5.80;99.90;;;;;;5072104;28;20036;-63
2022/01/23 10:23:14;;;;;;;0.63;0.63;;;5.80;99.90;;;;;;5070895;28;20033;-63
2022/01/23 10:25:43;;;;;;;0.75;0.75;;;5.80;99.90;;;;;;5072194;28;20036;-63
2022/01/23 10:28:19;;;;;;;1.02;1.02;;;5.80;99.90;;;;;;5087402;28;20085;-63
2022/01/23 10:30:58;;;;;;;2.65;1.80;;;5.60;99.90;;;;;;5070571;28;20111;-62
2022/01/23 10:33:35;;;;;;;1.40;1.30;;;5.70;99.90;;;;;;5070699;28;20044;-62
2022/01/23 10:36:11;;;;;;;1.80;1.70;;;5.70;99.90;;;;;;5071885;28;20481;-62
2022/01/23 10:39:03;;;;;;;9.23;4.05;;;5.70;99.90;;;;;;5071758;28;20078;-62
2022/01/23 10:41:46;;;;;;;1.75;1.65;;;5.80;99.90;;;;;;5070461;28;20096;-62
2022/01/23 10:50:03;;;;;;;0.70;0.70;;;6.00;99.90;;;;;;5071689;28;20036;-62
2022/01/23 10:52:42;;;;;;;1.65;0.73;;;5.90;99.90;;;;;;5070273;28;20036;-62
2022/01/23 10:55:20;;;;;;;2.65;2.28;;;6.00;99.90;;;;;;5086965;28;20036;-62
2022/01/23 10:57:50;;;;;;;1.42;1.38;;;5.90;99.90;;;;;;5071747;28;20037;-62
2022/01/23 11:00:30;;;;;;;3.03;1.80;;;5.90;99.90;;;;;;5071390;28;20051;-62
2022/01/23 11:02:59;;;;;;;5.55;1.00;;;5.90;99.90;;;;;;5069955;28;20574;-62
2022/01/23 11:05:39;;;;;;;1.27;1.15;;;5.90;99.90;;;;;;5071046;28;20086;-62
2022/01/23 11:08:27;;;;;;;1.67;1.58;;;6.00;99.90;;;;;;5070251;28;20474;-62
2022/01/23 11:11:06;;;;;;;13.00;2.72;;;6.10;99.90;;;;;;5071669;28;20497;-62
2022/01/23 11:19:26;;;;;;;1.48;1.38;;;6.50;99.90;;;;;;5071567;28;20405;-63
2022/01/23 11:21:54;;;;;;;2.97;2.72;;;6.60;99.90;;;;;;5071550;28;20040;-62
2022/01/23 11:24:21;;;;;;;1.95;1.30;;;6.70;99.90;;;;;;5070186;28;20393;-63
2022/01/23 11:26:47;;;;;;;0.70;0.70;;;6.80;99.90;;;;;;5070294;28;20115;-62
2022/01/23 11:29:18;;;;;;;11.85;3.28;;;6.70;99.90;;;;;;5071145;28;20029;-62
2022/01/23 11:31:44;;;;;;;1.30;1.23;;;6.60;99.90;;;;;;5071102;28;20071;-63
2022/01/23 11:34:14;;;;;;;0.60;0.60;;;6.70;99.90;;;;;;5071210;28;20032;-62
2022/01/23 11:36:42;;;;;;;0.75;0.73;;;6.80;99.90;;;;;;5071348;28;20024;-62
2022/01/23 11:39:13;;;;;;;6.43;2.28;;;6.70;99.90;;;;;;5070922;28;20036;-63
2022/01/23 11:56:27;;;;;;;0.70;0.70;;;6.50;99.90;;;;;;5070298;28;20029;-61
2022/01/23 11:59:18;;;;;;;3.20;2.95;;;6.60;99.90;;;;;;5054211;28;20090;-62
2022/01/23 12:02:07;;;;;;;1.60;1.50;;;6.70;99.90;;;;;;5050854;28;20048;-62
2022/01/23 12:04:34;;;;;;;2.83;2.63;;;6.70;99.90;;;;;;5050684;28;20478;-62
2022/01/23 12:07:10;;;;;;;1.15;0.70;;;6.70;99.90;;;;;;5050994;28;20047;-62
2022/01/23 12:09:37;;;;;;;1.95;1.85;;;6.60;99.90;;;;;;5050855;28;20073;-62
2022/01/23 12:18:29;;;;;;;5.22;2.60;;;6.70;99.90;;;;;;5031547;28;20085;-61
2022/01/23 12:20:56;;;;;;;0.40;0.40;;;6.90;99.90;;;;;;5053333;28;20048;-61
2022/01/23 12:23:25;;;;;;;1.25;1.25;;;6.90;99.90;;;;;;5054356;28;20060;-61
2022/01/23 12:25:55;;;;;;;1.52;1.42;;;6.80;99.90;;;;;;5052989;28;20029;-62
2022/01/23 12:28:29;;;;;;;6.45;0.98;;;6.90;99.90;;;;;;5054281;28;20033;-62
2022/01/23 12:31:17;;;;;;;12.35;2.70;;;6.90;99.90;;;;;;5036045;28;20474;-63
2022/01/23 12:33:48;;;;;;;1.25;0.95;;;6.60;99.90;;;;;;5054094;28;20036;-61
2022/01/23 12:36:14;;;;;;;1.60;1.50;;;6.60;99.90;;;;;;5053656;28;20159;-61
2022/01/23 12:38:50;;;;;;;1.63;1.52;;;6.50;99.90;;;;;;5054199;28;20448;-61
2022/01/23 12:41:23;;;;;;;0.20;0.20;;;6.50;99.90;;;;;;5052373;28;20032;-61
2022/01/23 12:44:04;;;;;;;3.10;2.50;;;6.60;99.90;;;;;;5054072;28;20069;-62
2022/01/23 12:46:39;;;;;;;8.55;2.38;;;6.70;99.90;;;;;;5053680;28;20071;-62
2022/01/23 12:49:33;;;;;;;0.25;0.25;;;6.70;99.90;;;;;;5053530;28;20037;-62
2022/01/23 12:52:05;;;;;;;1.25;1.15;;;6.90;99.90;;;;;;5052978;28;20535;-62
2022/01/23 12:54:57;;;;;;;1.30;1.20;;;6.90;99.90;;;;;;5053251;28;20033;-62
2022/01/23 12:57:41;;;;;;;0.93;0.90;;;6.90;99.90;;;;;;5052459;28;20033;-62
2022/01/23 13:00:19;;;;;;;2.17;1.98;;;7.10;99.90;;;;;;5053718;28;20056;-62
2022/01/23 13:02:49;;;;;;;3.72;1.25;;;7.30;99.90;;;;;;5053538;28;20492;-62
2022/01/23 13:05:17;;;;;;;2.40;2.20;;;7.30;99.90;;;;;;5052399;28;20572;-62
2022/01/23 13:16:16;;;;;;;0.17;0.17;;;7.10;99.90;;;;;;5053225;28;20025;-62
2022/01/23 13:30:14;;;;;;;5.25;2.28;;;7.30;99.90;;;;;;5051861;28;20037;-63
2022/01/23 13:35:04;;;;;;;7.90;1.90;;;7.20;99.90;;;;;;5052646;28;20032;-64
2022/01/23 13:37:34;;;;;;;;;;;7.00;99.90;;;;;;5068555;28;20068;-63
2022/01/23 13:40:06;;;;;;;0.40;0.40;;;6.90;99.90;;;;;;5051955;28;19917;-64
2022/01/23 13:59:14;;;;;;;1.98;1.77;;;6.80;99.90;;;;;;5072382;28;20077;-63
2022/01/23 14:04:19;;;;;;;1.98;0.82;;;6.90;99.90;;;;;;5071161;28;20036;-63
2022/01/23 14:06:48;;;;;;;1.40;0.73;;;6.90;99.90;;;;;;5064418;28;20033;-63
2022/01/23 14:09:16;;;;;;;1.13;1.10;;;6.80;99.90;;;;;;5070311;28;20115;-63
2022/01/23 14:11:45;;;;;;;1.08;0.95;;;6.80;99.90;;;;;;5067568;28;20029;-63
2022/01/23 14:14:24;;;;;;;2.08;1.90;;;6.80;99.90;;;;;;5061352;28;20032;-63
2022/01/23 14:16:53;;;;;;;0.10;0.10;;;6.80;99.90;;;;;;5070020;28;20558;-63
2022/01/23 14:19:24;;;;;;;0.98;0.95;;;6.90;99.90;;;;;;5070139;28;20109;-63
2022/01/23 14:21:56;;;;;;;3.00;2.72;;;7.50;99.90;;;;;;5059202;28;20059;-63
2022/01/23 14:24:37;;;;;;;0.22;0.22;;;7.20;99.90;;;;;;5061754;28;20123;-63
2022/01/23 14:27:08;;;;;;;1.60;1.50;;;7.20;99.90;;;;;;5069946;28;20040;-63
2022/01/23 14:29:52;;;;;;;14.45;2.92;;;7.00;99.90;;;;;;5072657;28;20072;-66
2022/01/23 14:32:33;;;;;;;1.95;1.75;;;7.00;99.90;;;;;;5051760;28;20053;-63
2022/01/23 14:35:10;;;;;;;1.77;1.67;;;7.00;99.90;;;;;;5051834;28;20037;-63
2022/01/23 14:37:39;;;;;;;1.42;1.33;;;7.00;99.90;;;;;;5050958;28;20033;-63
2022/01/23 14:40:27;;;;;;;0.73;0.47;;;7.00;99.90;;;;;;5051944;28;20045;-63
2022/01/23 14:43:09;;;;;;;1.83;1.73;;;7.00;99.90;;;;;;5051873;28;20039;-63
2022/01/23 14:45:54;;;;;;;0.85;0.85;;;7.10;99.90;;;;;;5051739;28;20539;-62
2022/01/23 14:48:20;;;;;;;2.92;2.47;;;7.00;99.90;;;;;;5051617;28;20482;-63
2022/01/23 14:50:52;;;;;;;6.85;1.92;;;7.00;99.90;;;;;;5051469;28;20033;-63
2022/01/23 14:53:24;;;;;;;0.50;0.50;;;7.00;99.90;;;;;;5051635;28;20061;-62
2022/01/23 14:56:01;;;;;;;0.40;0.40;;;7.00;99.90;;;;;;5051640;28;20035;-62
2022/01/23 14:58:31;;;;;;;0.30;0.30;;;7.00;99.90;;;;;;5051099;28;20127;-63
2022/01/23 15:00:59;;;;;;;0.45;0.43;;;7.00;99.90;;;;;;5050357;28;20510;-63
2022/01/23 15:03:29;;;;;;;1.45;1.25;;;7.00;99.90;;;;;;5051418;28;20033;-62
2022/01/23 15:05:55;;;;;;;0.43;0.43;;;6.90;99.90;;;;;;5050417;28;20035;-62
2022/01/23 15:08:23;;;;;;;1.23;0.90;;;7.00;99.90;;;;;;5051386;28;20037;-62
2022/01/23 15:10:52;;;;;;;2.00;1.75;;;7.00;99.90;;;;;;5050145;28;20116;-62
2022/01/23 15:13:24;;;;;;;2.22;1.45;;;7.10;99.90;;;;;;5051122;28;20490;-62
2022/01/23 15:15:52;;;;;;;1.02;1.02;;;7.10;99.90;;;;;;5050048;28;20536;-62
2022/01/23 15:18:20;;;;;;;0.20;0.20;;;7.20;99.90;;;;;;5051389;28;20033;-62
2022/01/23 15:20:46;;;;;;;1.17;0.73;;;7.00;99.90;;;;;;5049932;28;20021;-62
2022/01/23 15:23:14;;;;;;;1.15;1.08;;;7.00;99.90;;;;;;5050140;28;20029;-62
2022/01/23 15:25:41;;;;;;;1.10;1.10;;;7.10;99.90;;;;;;5051110;28;20032;-62
2022/01/23 15:28:08;;;;;;;0.63;0.63;;;7.00;99.90;;;;;;5051342;28;20030;-62
2022/01/23 15:30:36;;;;;;;4.38;1.25;;;7.00;99.90;;;;;;5049797;28;20041;-61
2022/01/23 15:33:06;;;;;;;1.15;1.15;;;7.00;99.90;;;;;;5050798;28;20056;-62
2022/01/23 15:35:35;;;;;;;0.17;0.17;;;7.00;99.90;;;;;;5050758;28;20037;-62
2022/01/23 15:38:02;;;;;;;0.20;0.20;;;7.00;99.90;;;;;;5051324;28;20033;-62
2022/01/23 15:40:29;;;;;;;1.05;1.05;;;7.10;99.90;;;;;;5051155;28;20091;-61
2022/01/23 15:42:55;;;;;;;0.63;0.63;;;7.10;99.90;;;;;;5051257;28;20034;-61
2022/01/23 15:45:24;;;;;;;0.10;0.10;;;7.10;99.90;;;;;;5050941;28;20448;-62
2022/01/23 15:47:51;;;;;;;0.63;0.63;;;7.10;99.90;;;;;;5051297;28;20029;-62
2022/01/23 15:50:19;;;;;;;0.65;0.65;;;7.10;99.90;;;;;;5054908;28;20481;-62
2022/01/23 15:52:47;;;;;;;0.88;0.88;;;7.00;99.90;;;;;;5073704;28;20039;-62
2022/01/23 15:55:16;;;;;;;0.98;0.98;;;7.10;99.90;;;;;;5074976;28;20044;-62
2022/01/23 15:57:43;;;;;;;0.32;0.32;;;7.00;99.90;;;;;;5074589;28;20381;-62
2022/01/23 16:00:12;;;;;;;5.20;1.75;;;6.90;99.90;;;;;;5073566;28;20362;-63
2022/01/23 16:02:39;;;;;;;1.70;1.05;;;6.80;99.90;;;;;;5074749;28;20131;-61
2022/01/23 16:05:06;;;;;;;0.68;0.68;;;6.70;99.90;;;;;;5073606;28;20060;-62
2022/01/23 16:07:31;;;;;;;10.98;2.33;;;6.70;99.90;;;;;;5074544;28;20234;-62
2022/01/23 16:09:57;;;;;;;0.65;0.65;;;6.70;99.90;;;;;;5073255;28;20118;-62
2022/01/23 16:12:23;;;;;;;1.52;1.42;;;6.70;99.90;;;;;;5074395;28;20048;-62
2022/01/23 16:14:52;;;;;;;0.98;0.93;;;6.70;99.90;;;;;;5073352;28;20043;-62
2022/01/23 16:17:18;;;;;;;0.38;0.38;;;6.70;99.90;;;;;;5074147;28;20040;-62
2022/01/23 16:19:43;;;;;;;1.00;1.00;;;6.70;99.90;;;;;;5073039;28;20110;-62
2022/01/23 16:22:09;;;;;;;1.08;1.05;;;6.70;99.90;;;;;;5074533;28;20454;-62
2022/01/23 16:24:35;;;;;;;0.80;0.80;;;6.70;99.90;;;;;;5074535;28;20044;-63
2022/01/23 16:27:01;;;;;;;0.63;0.63;;;6.70;99.90;;;;;;5073993;28;20028;-63
2022/01/23 16:29:28;;;;;;;12.23;2.28;;;6.70;99.90;;;;;;5071936;28;20033;-62
2022/01/23 16:31:59;;;;;;;0.90;0.85;;;6.60;99.90;;;;;;5073037;28;20072;-62
2022/01/23 16:34:28;;;;;;;1.67;1.55;;;6.50;99.90;;;;;;5071458;28;20111;-62
2022/01/23 16:36:56;;;;;;;1.02;1.00;;;6.60;99.90;;;;;;5073867;28;20037;-63
2022/01/23 16:39:23;;;;;;;0.55;0.55;;;6.60;99.90;;;;;;5073362;28;20032;-63
2022/01/23 16:41:51;;;;;;;2.40;1.75;;;6.60;99.90;;;;;;5073608;28;20036;-63
2022/01/23 16:44:21;;;;;;;2.35;2.20;;;6.60;99.90;;;;;;5073630;28;20382;-64
2022/01/23 16:46:47;;;;;;;1.00;1.00;;;6.50;99.90;;;;;;5072904;28;20028;-63
2022/01/23 16:49:13;;;;;;;0.65;0.65;;;6.40;99.90;;;;;;5073779;28;20116;-63
2022/01/23 16:51:39;;;;;;;7.22;1.25;;;6.30;99.90;;;;;;5073661;28;20481;-63
2022/01/23 16:54:10;;;;;;;0.50;0.50;;;6.30;99.90;;;;;;5072522;28;20046;-63
2022/01/23 16:56:38;;;;;;;0.43;0.43;;;6.30;99.90;;;;;;5073521;28;20411;-63
2022/01/23 16:59:07;;;;;;;1.48;1.38;;;6.30;99.90;;;;;;5072211;28;20040;-63
2022/01/23 17:01:33;;;;;;;3.15;2.83;;;6.30;99.90;;;;;;5072284;28;20393;-64
2022/01/23 17:03:59;;;;;;;0.57;0.55;;;6.40;99.90;;;;;;5073720;28;20032;-63